< < Back
Terminal Aerodrome Forecast


Current Version              Previous Versions:   1  2  3  4  5  6  7  8  9  

Terminal Aerodrome Forecast

698
FTUS42 KFFC 291131
TAFPDK
TAF
KPDK 291131Z 2912/3012 00000KT P6SM SKC
     FM291400 11006KT P6SM SKC
     FM291700 15007KT P6SM SKC
     FM292100 18007KT P6SM SCT050
     FM300300 17007KT P6SM BKN035
     FM300800 20008KT P6SM OVC020=



Latest METAR

343
SAUS70 KWBC 291700 RRA
MTRPDK
METAR KPDK 291653Z 00000KT 10SM CLR 10/M09 A3037 RMK AO2 SLP295
T01001094


USA.gov is the U.S. government's official web portal to all federal, state and local government web resources and services.